createdAt,value
2022-09-28T00:02:51.716Z,93062.88
2022-09-28T00:05:54.721Z,93054.25
2022-09-28T00:08:59.221Z,93056.63
2022-09-28T00:12:03.251Z,93061.38
2022-09-28T00:15:06.515Z,93050.22
2022-09-28T00:18:09.464Z,93053.53
2022-09-28T00:21:15.730Z,93052.19
2022-09-28T00:24:26.674Z,93039.31
2022-09-28T00:27:31.462Z,93042.13
2022-09-28T00:30:34.504Z,93041.34
2022-09-28T00:33:37.558Z,93040.84
2022-09-28T00:36:46.132Z,93044.94
2022-09-28T00:39:50.478Z,93034.66
2022-09-28T00:42:53.436Z,93023.41
2022-09-28T00:46:06.866Z,93028.22
2022-09-28T00:49:16.650Z,93026.38
2022-09-28T00:52:28.246Z,93022.94
2022-09-28T00:55:39.641Z,93026.47
2022-09-28T00:58:48.082Z,93022.47
2022-09-28T01:01:51.834Z,93017.13
2022-09-28T01:04:57.942Z,93014.41
2022-09-28T01:08:03.525Z,93018.78
2022-09-28T01:11:07.777Z,93016.13
2022-09-28T01:14:14.085Z,93011.88
2022-09-28T01:17:27.346Z,93013.28
2022-09-28T01:20:43.267Z,93007.47
2022-09-28T01:24:11.189Z,93016.25
2022-09-28T01:27:27.373Z,93006.59
2022-09-28T01:30:38.608Z,92994.66
2022-09-28T01:33:55.940Z,92988.72
2022-09-28T01:37:05.914Z,92995.28
2022-09-28T01:40:12.791Z,92987.94
2022-09-28T01:43:25.383Z,92996.31
2022-09-28T01:46:45.258Z,92986.84
2022-09-28T01:50:02.473Z,92981.84
2022-09-28T01:53:13.394Z,92978.47
2022-09-28T01:56:36.710Z,92986.16
2022-09-28T01:59:45.686Z,92977.97
2022-09-28T02:03:13.447Z,92973.78
2022-09-28T02:06:39.378Z,92973.97
2022-09-28T02:09:49.831Z,92975.16
2022-09-28T02:13:01.903Z,92969.63
2022-09-28T02:16:10.867Z,92962.06
2022-09-28T02:19:24.298Z,92970.34
2022-09-28T02:22:35.171Z,92961.88
2022-09-28T02:25:52.358Z,92960.06
2022-09-28T02:28:57.629Z,92949.06
2022-09-28T02:32:01.485Z,92940.56
2022-09-28T02:35:05.858Z,92936.53
2022-09-28T02:38:12.439Z,92931.72
2022-09-28T02:41:43.966Z,92926.56
2022-09-28T02:44:58.294Z,92911.13
2022-09-28T02:48:43.115Z,92900.69
2022-09-28T02:52:25.644Z,92895.25
2022-09-28T02:55:37.851Z,92888.84
2022-09-28T02:58:57.332Z,92885.03
2022-09-28T03:02:19.573Z,92897.69
2022-09-28T03:05:30.982Z,92880.25
2022-09-28T03:08:58.549Z,92888.47
2022-09-28T03:12:13.168Z,92883.72
2022-09-28T03:15:26.466Z,92878.75
2022-09-28T03:18:33.187Z,92858.38
2022-09-28T03:21:37.124Z,92863.25
2022-09-28T03:24:40.824Z,92855.81
2022-09-28T03:27:45.670Z,92853.56
2022-09-28T03:30:51.254Z,92843.41
2022-09-28T03:33:56.553Z,92847.94
2022-09-28T03:37:00.565Z,92838.59
2022-09-28T03:40:06.852Z,92825.41
2022-09-28T03:43:10.581Z,92818.38
2022-09-28T03:46:15.125Z,92816.13
2022-09-28T03:49:23.452Z,92799.81
2022-09-28T03:52:27.219Z,92798.72
2022-09-28T03:55:31.521Z,92797.94
2022-09-28T03:58:35.976Z,92799.41
2022-09-28T04:01:39.834Z,92789.16
2022-09-28T04:04:44.659Z,92794.22
2022-09-28T04:07:48.350Z,92798.78
2022-09-28T04:10:52.880Z,92784.44
2022-09-28T04:13:56.836Z,92787.53
2022-09-28T04:17:01.397Z,92784.69
2022-09-28T04:20:07.973Z,92774.06
2022-09-28T04:23:35.631Z,92781.56
2022-09-28T04:26:39.568Z,92771.50
2022-09-28T04:29:45.387Z,92773.84
2022-09-28T04:32:50.202Z,92771.81
2022-09-28T04:35:54.801Z,92759.97
2022-09-28T04:38:58.453Z,92743.97
2022-09-28T04:42:04.317Z,92743.63
2022-09-28T04:45:09.077Z,92734.59
2022-09-28T04:48:18.560Z,92725.81
2022-09-28T04:51:44.975Z,92728.81
2022-09-28T04:54:49.215Z,92727.38
2022-09-28T04:57:52.788Z,92707.59
2022-09-28T05:01:05.610Z,92711.47
2022-09-28T05:04:44.572Z,92703.69
2022-09-28T05:08:08.470Z,92689.75
2022-09-28T05:11:14.097Z,92689.63
2022-09-28T05:14:18.216Z,92695.66
2022-09-28T05:17:21.951Z,92689.13
2022-09-28T05:20:42.997Z,92676.88
2022-09-28T05:23:48.248Z,92666.94
2022-09-28T05:26:52.556Z,92662.72
2022-09-28T05:29:56.375Z,92655.63
2022-09-28T05:33:06.394Z,92651.72
2022-09-28T05:36:27.698Z,92633.84
2022-09-28T05:39:31.249Z,92629.06
2022-09-28T05:42:35.390Z,92625.00
2022-09-28T05:45:39.192Z,92617.22
2022-09-28T05:48:43.240Z,92621.69
2022-09-28T05:51:47.132Z,92620.00
2022-09-28T05:54:51.360Z,92613.59
2022-09-28T05:57:59.923Z,92605.34
2022-09-28T06:01:03.962Z,92601.09
2022-09-28T06:04:09.437Z,92605.94
2022-09-28T06:07:13.729Z,92600.56
2022-09-28T06:10:17.591Z,92595.28
2022-09-28T06:13:21.560Z,92593.56
2022-09-28T06:16:27.125Z,92597.81
2022-09-28T06:19:31.343Z,92589.88
2022-09-28T06:23:01.302Z,92578.16
2022-09-28T06:26:05.676Z,92574.22
2022-09-28T06:29:09.329Z,92571.78
2022-09-28T06:32:14.904Z,92556.22
2022-09-28T06:35:23.055Z,92547.97
2022-09-28T06:38:27.495Z,92550.25
2022-09-28T06:41:31.416Z,92552.88
2022-09-28T06:44:39.162Z,92549.44
2022-09-28T06:48:08.587Z,92548.00
2022-09-28T06:51:16.009Z,92538.09
2022-09-28T06:54:42.901Z,92530.16
2022-09-28T06:58:12.982Z,92529.09
2022-09-28T07:01:16.678Z,92531.81
2022-09-28T07:04:35.140Z,92517.63
2022-09-28T07:08:02.528Z,92523.31
2022-09-28T07:11:27.708Z,92519.91
2022-09-28T07:14:48.113Z,92512.81
2022-09-28T07:18:02.683Z,92509.44
2022-09-28T07:21:15.955Z,92495.75
2022-09-28T07:24:25.904Z,92499.38
2022-09-28T07:27:32.413Z,92489.34
2022-09-28T07:31:07.504Z,92484.16
2022-09-28T07:34:32.303Z,92475.31
2022-09-28T07:37:42.212Z,92470.50
2022-09-28T07:41:04.407Z,92472.13
2022-09-28T07:44:08.695Z,92475.47
2022-09-28T07:47:14.982Z,92464.50
2022-09-28T07:50:37.532Z,92452.66
2022-09-28T07:54:01.084Z,92464.47
2022-09-28T07:57:19.216Z,92446.94
2022-09-28T08:00:34.244Z,92445.38
2022-09-28T08:03:39.810Z,92436.97
2022-09-28T08:06:45.454Z,92438.66
2022-09-28T08:09:50.428Z,92425.34
2022-09-28T08:13:06.423Z,92421.50
2022-09-28T08:20:11.074Z,92418.56
2022-09-28T08:23:15.188Z,92410.69
2022-09-28T08:26:19.106Z,92410.88
2022-09-28T08:29:23.289Z,92411.75
2022-09-28T08:32:26.753Z,92405.13
2022-09-28T08:35:58.418Z,92407.13
2022-09-28T08:39:20.801Z,92396.50
2022-09-28T08:42:44.028Z,92391.88
2022-09-28T08:46:23.764Z,92406.72
2022-09-28T08:49:51.260Z,92387.97
2022-09-28T08:53:54.169Z,92390.66
2022-09-28T08:57:25.671Z,92392.75
2022-09-28T09:00:44.705Z,92399.50
2022-09-28T09:03:50.200Z,92394.91
2022-09-28T09:07:18.773Z,92403.00
2022-09-28T09:10:53.712Z,92398.34
2022-09-28T09:14:29.837Z,92401.03
2022-09-28T09:17:43.935Z,92398.41
2022-09-28T09:21:10.252Z,92397.75
2022-09-28T09:24:52.613Z,92402.50
2022-09-28T09:28:17.887Z,92399.94
2022-09-28T09:31:39.436Z,92386.69
2022-09-28T09:35:23.834Z,92382.75
2022-09-28T09:38:47.876Z,92370.06
2022-09-28T09:42:12.403Z,92360.66
2022-09-28T09:46:06.587Z,92349.22
2022-09-28T09:49:52.424Z,92346.53
2022-09-28T09:53:02.331Z,92336.50
2022-09-28T09:56:31.777Z,92345.22
2022-09-28T10:00:14.703Z,92345.91
2022-09-28T10:03:33.981Z,92356.69
2022-09-28T10:06:57.573Z,92357.38
2022-09-28T10:10:03.066Z,92350.72
2022-09-28T10:13:36.806Z,92347.38
2022-09-28T10:16:53.954Z,92350.72
2022-09-28T10:20:20.983Z,92325.28
2022-09-28T10:23:38.550Z,92329.28
2022-09-28T10:26:47.816Z,92328.00
2022-09-28T10:30:16.751Z,92328.66
2022-09-28T10:33:33.951Z,92319.94
2022-09-28T10:36:55.614Z,92321.31
2022-09-28T10:40:00.041Z,92310.63
2022-09-28T10:43:27.431Z,92315.34
2022-09-28T10:46:36.981Z,92314.69
2022-09-28T10:49:50.300Z,92306.00
2022-09-28T10:53:12.486Z,92302.00
2022-09-28T10:56:40.584Z,92296.63
2022-09-28T10:59:49.094Z,92304.69
2022-09-28T11:03:04.152Z,92287.97
2022-09-28T11:06:09.870Z,92294.66
2022-09-28T11:09:33.950Z,92285.97
2022-09-28T11:12:46.295Z,92288.00
2022-09-28T11:15:50.763Z,92282.03
2022-09-28T11:19:22.221Z,92273.31
2022-09-28T11:22:42.306Z,92274.66
2022-09-28T11:26:05.441Z,92267.31
2022-09-28T11:29:35.409Z,92265.97
2022-09-28T11:33:05.057Z,92259.97
2022-09-28T11:36:14.195Z,92256.63
2022-09-28T11:39:23.558Z,92261.31
2022-09-28T11:42:43.349Z,92254.63
2022-09-28T11:46:04.819Z,92249.28
2022-09-28T11:49:36.536Z,92251.31
2022-09-28T11:53:02.594Z,92241.31
2022-09-28T11:56:20.000Z,92240.66
2022-09-28T11:59:58.994Z,92242.00
2022-09-28T12:03:16.241Z,92244.03
2022-09-28T12:06:25.934Z,92233.34
2022-09-28T12:09:54.283Z,92237.34
2022-09-28T12:13:06.761Z,92232.00
2022-09-28T12:20:20.673Z,92218.63
2022-09-28T12:23:35.153Z,92223.31
2022-09-28T12:27:10.762Z,92226.00
2022-09-28T12:30:28.275Z,92214.00
2022-09-28T12:33:32.886Z,92211.31
2022-09-28T12:36:42.446Z,92206.59
2022-09-28T12:40:23.410Z,92219.31
2022-09-28T12:43:40.900Z,92207.94
2022-09-28T12:47:06.025Z,92210.00
2022-09-28T12:50:53.997Z,92212.66
2022-09-28T12:54:04.888Z,92208.63
2022-09-28T12:57:38.175Z,92210.66
2022-09-28T13:01:15.872Z,92212.66
2022-09-28T13:05:07.488Z,92209.97
2022-09-28T13:08:42.655Z,92209.97
2022-09-28T13:11:55.327Z,92210.66
2022-09-28T13:15:17.629Z,92195.25
2022-09-28T13:18:39.637Z,92205.34
2022-09-28T13:22:41.027Z,92194.63
2022-09-28T13:26:15.026Z,92192.63
2022-09-28T13:29:20.676Z,92183.25
2022-09-28T13:32:26.895Z,92189.28
2022-09-28T13:35:29.973Z,92191.97
2022-09-28T13:38:48.456Z,92184.59
2022-09-28T13:41:54.818Z,92191.94
2022-09-28T13:45:12.805Z,92190.66
2022-09-28T13:48:43.123Z,92195.34
2022-09-28T13:52:07.335Z,92200.00
2022-09-28T13:55:25.493Z,92193.34
2022-09-28T13:58:39.475Z,92183.28
2022-09-28T14:01:56.419Z,92190.66
2022-09-28T14:05:28.152Z,92194.03
2022-09-28T14:08:35.181Z,92189.38
2022-09-28T14:11:43.022Z,92179.41
2022-09-28T14:14:51.056Z,92176.75
2022-09-28T14:18:06.269Z,92178.06
2022-09-28T14:21:33.464Z,92181.41
2022-09-28T14:24:54.782Z,92187.44
2022-09-28T14:28:07.215Z,92188.78
2022-09-28T14:31:22.925Z,92186.78
2022-09-28T14:34:27.545Z,92185.44
2022-09-28T14:37:56.113Z,92190.13
2022-09-28T14:41:11.458Z,92191.44
2022-09-28T14:44:19.966Z,92198.13
2022-09-28T14:47:35.780Z,92202.78
2022-09-28T14:50:39.891Z,92216.84
2022-09-28T14:53:43.614Z,92231.56
2022-09-28T14:56:49.392Z,92218.22
2022-09-28T14:59:54.958Z,92205.56
2022-09-28T15:03:03.043Z,92226.25
2022-09-28T15:06:06.401Z,92215.56
2022-09-28T15:09:28.059Z,92200.16
2022-09-28T15:12:32.512Z,92194.81
2022-09-28T15:15:40.660Z,92205.50
2022-09-28T15:18:59.808Z,92195.53
2022-09-28T15:22:03.196Z,92196.84
2022-09-28T15:25:15.916Z,92194.84
2022-09-28T15:28:24.555Z,92208.19
2022-09-28T15:31:31.795Z,92204.88
2022-09-28T15:34:52.341Z,92196.16
2022-09-28T15:37:56.805Z,92192.81
2022-09-28T15:41:05.132Z,92202.16
2022-09-28T15:44:39.660Z,92189.44
2022-09-28T15:47:45.905Z,92202.84
2022-09-28T15:51:00.082Z,92201.50
2022-09-28T15:54:12.002Z,92197.53
2022-09-28T15:57:48.563Z,92213.56
2022-09-28T16:01:12.597Z,92214.31
2022-09-28T16:04:38.272Z,92214.97
2022-09-28T16:07:42.212Z,92230.34
2022-09-28T16:10:57.581Z,92220.97
2022-09-28T16:14:09.377Z,92235.69
2022-09-28T16:17:19.977Z,92219.69
2022-09-28T16:20:32.323Z,92235.69
2022-09-28T16:23:37.427Z,92235.69
2022-09-28T16:26:40.980Z,92239.00
2022-09-28T16:29:45.589Z,92233.00
2022-09-28T16:32:52.629Z,92229.00
2022-09-28T16:35:55.985Z,92241.66
2022-09-28T16:38:59.498Z,92237.00
2022-09-28T16:42:12.283Z,92237.69
2022-09-28T16:45:21.012Z,92252.34
2022-09-28T16:48:30.316Z,92260.38
2022-09-28T16:51:34.169Z,92279.69
2022-09-28T16:54:56.248Z,92288.31
2022-09-28T16:57:59.426Z,92278.91
2022-09-28T17:01:03.361Z,92282.81
2022-09-28T17:04:07.994Z,92282.78
2022-09-28T17:07:15.283Z,92293.41
2022-09-28T17:10:27.038Z,92286.63
2022-09-28T17:13:34.167Z,92293.88
2022-09-28T17:20:26.218Z,92291.09
2022-09-28T17:23:29.762Z,92295.06
2022-09-28T17:26:35.522Z,92288.41
2022-09-28T17:29:38.959Z,92301.72
2022-09-28T17:32:45.897Z,92292.25
2022-09-28T17:35:52.227Z,92294.25
2022-09-28T17:38:56.109Z,92296.91
2022-09-28T17:41:59.663Z,92288.25
2022-09-28T17:45:03.934Z,92284.25
2022-09-28T17:48:18.383Z,92290.81
2022-09-28T17:51:23.345Z,92288.66
2022-09-28T17:54:26.997Z,92271.31
2022-09-28T17:57:30.870Z,92262.69
2022-09-28T18:00:34.600Z,92269.91
2022-09-28T18:03:39.231Z,92272.31
2022-09-28T18:06:43.759Z,92278.94
2022-09-28T18:09:47.650Z,92280.28
2022-09-28T18:12:51.600Z,92275.00
2022-09-28T18:15:56.914Z,92279.69
2022-09-28T18:19:00.752Z,92273.63
2022-09-28T18:22:03.976Z,92274.94
2022-09-28T18:25:08.148Z,92272.19
2022-09-28T18:28:13.266Z,92271.63
2022-09-28T18:31:19.481Z,92275.06
2022-09-28T18:34:23.512Z,92275.72
2022-09-28T18:37:26.707Z,92283.69
2022-09-28T18:40:30.540Z,92285.69
2022-09-28T18:43:36.330Z,92283.84
2022-09-28T18:46:41.735Z,92285.13
2022-09-28T18:49:46.863Z,92279.19
2022-09-28T18:52:50.768Z,92281.97
2022-09-28T18:55:53.837Z,92292.03
2022-09-28T18:59:00.559Z,92291.41
2022-09-28T19:02:04.187Z,92296.66
2022-09-28T19:05:07.782Z,92278.66
2022-09-28T19:08:11.517Z,92293.84
2022-09-28T19:11:16.721Z,92303.16
2022-09-28T19:14:20.124Z,92299.88
2022-09-28T19:17:23.610Z,92297.06
2022-09-28T19:20:27.471Z,92303.59
2022-09-28T19:23:30.297Z,92302.34
2022-09-28T19:26:33.877Z,92308.16
2022-09-28T19:29:37.044Z,92298.84
2022-09-28T19:32:39.893Z,92301.47
2022-09-28T19:35:43.035Z,92309.44
2022-09-28T19:38:46.810Z,92303.47
2022-09-28T19:41:53.251Z,92316.25
2022-09-28T19:44:56.896Z,92317.50
2022-09-28T19:48:02.420Z,92316.88
2022-09-28T19:51:07.781Z,92320.31
2022-09-28T19:54:12.207Z,92326.84
2022-09-28T19:57:16.331Z,92330.75
2022-09-28T20:00:19.949Z,92337.31
2022-09-28T20:03:26.091Z,92345.94
2022-09-28T20:06:29.826Z,92349.34
2022-09-28T20:09:34.170Z,92341.41
2022-09-28T20:12:37.575Z,92349.97
2022-09-28T20:15:42.389Z,92354.63
2022-09-28T20:18:50.773Z,92359.91
2022-09-28T20:21:53.965Z,92373.06
2022-09-28T20:24:56.769Z,92365.13
2022-09-28T20:27:59.873Z,92385.19
2022-09-28T20:31:13.342Z,92381.34
2022-09-28T20:34:17.311Z,92387.38
2022-09-28T20:37:20.465Z,92385.25
2022-09-28T20:40:23.757Z,92391.81
2022-09-28T20:43:28.392Z,92388.38
2022-09-28T20:46:31.633Z,92393.06
2022-09-28T20:49:35.212Z,92391.09
2022-09-28T20:52:39.092Z,92401.53
2022-09-28T20:55:42.128Z,92398.88
2022-09-28T20:58:45.994Z,92403.53
2022-09-28T21:01:49.143Z,92414.75
2022-09-28T21:04:52.052Z,92417.97
2022-09-28T21:07:55.589Z,92417.25
2022-09-28T21:10:59.882Z,92425.63
2022-09-28T21:14:06.223Z,92443.63
2022-09-28T21:17:11.740Z,92457.63
2022-09-28T21:20:15.350Z,92456.03
2022-09-28T21:23:24.524Z,92464.66
2022-09-28T21:26:30.544Z,92469.28
2022-09-28T21:29:34.433Z,92472.78
2022-09-28T21:32:38.882Z,92474.22
2022-09-28T21:35:42.649Z,92473.66
2022-09-28T21:38:46.151Z,92467.78
2022-09-28T21:41:50.298Z,92463.19
2022-09-28T21:44:57.418Z,92466.53
2022-09-28T21:48:03.397Z,92459.69
2022-09-28T21:51:09.664Z,92458.38
2022-09-28T21:54:13.116Z,92470.81
2022-09-28T21:57:18.753Z,92469.41
2022-09-28T22:00:26.032Z,92468.66
2022-09-28T22:03:31.351Z,92479.31
2022-09-28T22:06:34.907Z,92487.28
2022-09-28T22:09:37.856Z,92495.47
2022-09-28T22:12:41.310Z,92494.72
2022-09-28T22:15:44.834Z,92500.06
2022-09-28T22:18:48.925Z,92513.44
2022-09-28T22:21:51.819Z,92518.69
2022-09-28T22:24:55.912Z,92511.97
2022-09-28T22:27:58.791Z,92518.63
2022-09-28T22:31:02.558Z,92538.53
2022-09-28T22:34:06.329Z,92532.41
2022-09-28T22:37:10.014Z,92542.50
2022-09-28T22:40:13.566Z,92551.88
2022-09-28T22:43:17.259Z,92554.50
2022-09-28T22:46:23.414Z,92561.34
2022-09-28T22:49:26.853Z,92574.66
2022-09-28T22:52:30.039Z,92573.84
2022-09-28T22:55:35.848Z,92576.91
2022-09-28T22:58:39.816Z,92591.66
2022-09-28T23:01:42.675Z,92577.56
2022-09-28T23:04:45.839Z,92590.25
2022-09-28T23:07:48.584Z,92590.84
2022-09-28T23:10:52.005Z,92587.50
2022-09-28T23:13:58.084Z,92589.47
2022-09-28T23:17:00.893Z,92591.41
2022-09-28T23:20:04.680Z,92611.31
2022-09-28T23:23:08.026Z,92615.31
2022-09-28T23:26:14.227Z,92617.34
2022-09-28T23:29:17.621Z,92627.38
2022-09-28T23:32:21.181Z,92627.38
2022-09-28T23:35:24.600Z,92631.56
2022-09-28T23:38:28.364Z,92652.22
2022-09-28T23:41:31.893Z,92651.50
2022-09-28T23:44:35.640Z,92648.31
2022-09-28T23:47:39.335Z,92653.63
2022-09-28T23:50:44.108Z,92665.28
2022-09-28T23:53:47.301Z,92660.19
2022-09-28T23:56:51.514Z,92661.56
2022-09-28T23:59:54.326Z,92670.41
